createdAt,value
2023-03-16T00:00:49.377Z,100740.94
2023-03-16T00:02:21.334Z,100741.84
2023-03-16T00:03:53.236Z,100740.97
2023-03-16T00:05:26.031Z,100751.53
2023-03-16T00:06:58.673Z,100740.97
2023-03-16T00:08:30.408Z,100744.53
2023-03-16T00:10:02.429Z,100751.53
2023-03-16T00:11:34.219Z,100754.16
2023-03-16T00:13:05.928Z,100743.66
2023-03-16T00:14:37.641Z,100747.19
2023-03-16T00:16:09.342Z,100746.31
2023-03-16T00:17:41.084Z,100753.34
2023-03-16T00:19:12.845Z,100757.78
2023-03-16T00:20:44.563Z,100750.78
2023-03-16T00:22:16.760Z,100748.13
2023-03-16T00:23:48.467Z,100744.59
2023-03-16T00:25:20.163Z,100746.38
2023-03-16T00:26:54.964Z,100744.59
2023-03-16T00:28:27.862Z,100748.13
2023-03-16T00:29:59.924Z,100753.41
2023-03-16T00:31:33.937Z,100753.41
2023-03-16T00:33:05.812Z,100756.06
2023-03-16T00:34:37.670Z,100753.41
2023-03-16T00:36:11.477Z,100751.66
2023-03-16T00:37:44.544Z,100749.03
2023-03-16T00:39:16.328Z,100751.66
2023-03-16T00:40:51.347Z,100755.22
2023-03-16T00:42:27.636Z,100750.78
2023-03-16T00:43:59.655Z,100753.44
2023-03-16T00:45:32.612Z,100746.38
2023-03-16T00:47:05.686Z,100759.59
2023-03-16T00:48:39.565Z,100755.22
2023-03-16T00:50:11.886Z,100762.28
2023-03-16T00:51:46.389Z,100754.41
2023-03-16T00:53:18.171Z,100754.44
2023-03-16T00:54:52.985Z,100760.63
2023-03-16T00:56:24.670Z,100758.03
2023-03-16T00:57:56.372Z,100762.41
2023-03-16T00:59:29.281Z,100760.69
2023-03-16T01:01:02.409Z,100764.22
2023-03-16T01:02:37.125Z,100773.06
2023-03-16T01:04:09.565Z,100771.31
2023-03-16T01:05:42.521Z,100771.31
2023-03-16T01:07:14.938Z,100782.78
2023-03-16T01:08:47.441Z,100785.44
2023-03-16T01:10:19.255Z,100789.03
2023-03-16T01:11:54.038Z,100789.03
2023-03-16T01:13:25.979Z,100785.53
2023-03-16T01:14:58.184Z,100794.38
2023-03-16T01:16:33.923Z,100782.97
2023-03-16T01:18:06.489Z,100790.88
2023-03-16T01:19:38.380Z,100790.00
2023-03-16T01:21:13.973Z,100794.44
2023-03-16T01:22:45.789Z,100790.94
2023-03-16T01:24:18.046Z,100790.06
2023-03-16T01:25:54.262Z,100788.34
2023-03-16T01:27:26.352Z,100793.63
2023-03-16T01:28:58.211Z,100794.50
2023-03-16T01:30:30.367Z,100800.69
2023-03-16T01:32:02.245Z,100795.44
2023-03-16T01:33:34.147Z,100797.19
2023-03-16T01:35:07.463Z,100795.47
2023-03-16T01:36:39.167Z,100801.59
2023-03-16T01:38:12.022Z,100799.00
2023-03-16T01:39:44.492Z,100795.50
2023-03-16T01:41:16.826Z,100792.88
2023-03-16T01:42:59.503Z,100794.63
2023-03-16T01:44:51.846Z,100801.72
2023-03-16T01:46:28.770Z,100792.03
2023-03-16T01:48:01.525Z,100794.66
2023-03-16T01:49:38.107Z,100799.09
2023-03-16T01:51:33.448Z,100795.59
2023-03-16T01:53:05.243Z,100798.22
2023-03-16T01:54:42.865Z,100802.63
2023-03-16T01:56:20.338Z,100796.44
2023-03-16T01:57:52.273Z,100797.31
2023-03-16T01:59:30.644Z,100792.94
2023-03-16T02:01:03.713Z,100791.16
2023-03-16T02:02:40.041Z,100799.03
2023-03-16T02:04:35.486Z,100797.34
2023-03-16T02:06:18.989Z,100799.88
2023-03-16T02:07:58.792Z,100793.69
2023-03-16T02:09:32.179Z,100791.00
2023-03-16T02:11:05.657Z,100789.22
2023-03-16T02:12:47.304Z,100791.84
2023-03-16T02:14:19.717Z,100785.72
2023-03-16T02:15:52.860Z,100790.97
2023-03-16T02:17:28.742Z,100794.47
2023-03-16T02:19:12.061Z,100796.25
2023-03-16T02:20:51.686Z,100791.84
2023-03-16T02:22:25.168Z,100792.72
2023-03-16T02:23:57.178Z,100791.00
2023-03-16T02:25:39.876Z,100800.72
2023-03-16T02:27:25.582Z,100800.75
2023-03-16T02:29:14.234Z,100793.75
2023-03-16T02:30:47.738Z,100794.59
2023-03-16T02:32:21.249Z,100799.00
2023-03-16T02:33:55.220Z,100796.38
2023-03-16T02:35:27.088Z,100794.66
2023-03-16T02:36:59.460Z,100799.06
2023-03-16T02:38:32.808Z,100797.31
2023-03-16T02:40:27.796Z,100799.13
2023-03-16T02:42:02.552Z,100804.34
2023-03-16T02:43:36.275Z,100803.50
2023-03-16T02:45:28.974Z,100806.13
2023-03-16T02:47:05.781Z,100795.59
2023-03-16T02:48:45.730Z,100799.13
2023-03-16T02:50:17.610Z,100807.91
2023-03-16T02:51:49.384Z,100803.53
2023-03-16T02:53:21.907Z,100791.22
2023-03-16T02:54:53.642Z,100802.69
2023-03-16T02:56:26.396Z,100801.81
2023-03-16T02:57:58.138Z,100801.84
2023-03-16T02:59:30.235Z,100801.84
2023-03-16T03:01:02.397Z,100802.72
2023-03-16T03:02:34.165Z,100802.75
2023-03-16T03:04:06.414Z,100796.66
2023-03-16T03:05:38.118Z,100796.66
2023-03-16T03:07:10.005Z,100800.16
2023-03-16T03:08:59.043Z,100798.38
2023-03-16T03:10:31.293Z,100801.94
2023-03-16T03:12:03.431Z,100795.75
2023-03-16T03:13:38.277Z,100799.28
2023-03-16T03:15:13.252Z,100801.03
2023-03-16T03:16:53.925Z,100802.81
2023-03-16T03:18:25.750Z,100800.16
2023-03-16T03:20:00.584Z,100800.16
2023-03-16T03:21:32.359Z,100804.56
2023-03-16T03:23:05.872Z,100805.44
2023-03-16T03:24:38.958Z,100801.03
2023-03-16T03:26:10.676Z,100797.53
2023-03-16T03:27:44.383Z,100807.22
2023-03-16T03:29:19.139Z,100807.25
2023-03-16T03:30:51.638Z,100799.34
2023-03-16T03:32:23.403Z,100804.63
2023-03-16T03:33:55.361Z,100812.59
2023-03-16T03:35:27.779Z,100807.31
2023-03-16T03:37:01.189Z,100809.09
2023-03-16T03:38:33.292Z,100808.25
2023-03-16T03:40:06.396Z,100812.69
2023-03-16T03:41:38.235Z,100807.47
2023-03-16T03:43:11.585Z,100814.53
2023-03-16T03:44:46.943Z,100818.09
2023-03-16T03:46:18.857Z,100821.63
2023-03-16T03:47:51.033Z,100816.41
2023-03-16T03:49:25.345Z,100825.19
2023-03-16T03:50:57.299Z,100822.59
2023-03-16T03:52:43.581Z,100830.50
2023-03-16T03:54:15.402Z,100822.66
2023-03-16T03:56:02.598Z,100827.94
2023-03-16T03:57:34.962Z,100823.56
2023-03-16T03:59:07.041Z,100827.09
2023-03-16T04:00:57.170Z,100822.72
2023-03-16T04:02:29.145Z,100825.34
2023-03-16T04:04:01.310Z,100818.34
2023-03-16T04:05:33.448Z,100826.25
2023-03-16T04:07:05.303Z,100826.25
2023-03-16T04:08:37.326Z,100833.34
2023-03-16T04:10:13.683Z,100830.69
2023-03-16T04:11:47.708Z,100835.97
2023-03-16T04:13:19.467Z,100831.63
2023-03-16T04:14:51.796Z,100836.03
2023-03-16T04:16:27.059Z,100828.16
2023-03-16T04:18:00.203Z,100829.03
2023-03-16T04:19:32.056Z,100829.94
2023-03-16T04:21:07.696Z,100831.72
2023-03-16T04:22:39.562Z,100822.06
2023-03-16T04:24:14.934Z,100821.22
2023-03-16T04:25:47.575Z,100828.25
2023-03-16T04:27:21.848Z,100825.63
2023-03-16T04:28:53.763Z,100823.91
2023-03-16T04:30:26.474Z,100821.25
2023-03-16T04:32:07.279Z,100825.63
2023-03-16T04:33:42.447Z,100823.91
2023-03-16T04:35:15.669Z,100821.28
2023-03-16T04:36:53.831Z,100825.66
2023-03-16T04:38:26.067Z,100824.81
2023-03-16T04:40:11.117Z,100819.53
2023-03-16T04:41:43.151Z,100820.41
2023-03-16T04:43:20.359Z,100816.84
2023-03-16T04:44:52.948Z,100815.94
2023-03-16T04:46:27.120Z,100812.44
2023-03-16T04:47:59.493Z,100818.56
2023-03-16T04:49:31.342Z,100820.31
2023-03-16T04:51:04.013Z,100816.78
2023-03-16T04:52:38.745Z,100820.28
2023-03-16T04:54:11.471Z,100824.66
2023-03-16T04:55:47.036Z,100811.47
2023-03-16T04:57:19.473Z,100818.53
2023-03-16T04:58:56.953Z,100819.44
2023-03-16T05:00:30.840Z,100816.78
2023-03-16T05:02:08.730Z,100823.81
2023-03-16T05:03:41.723Z,100816.78
2023-03-16T05:05:15.356Z,100816.81
2023-03-16T05:06:48.331Z,100818.59
2023-03-16T05:08:21.280Z,100823.00
2023-03-16T05:09:55.053Z,100827.41
2023-03-16T05:11:27.120Z,100825.66
2023-03-16T05:13:03.116Z,100818.63
2023-03-16T05:14:36.534Z,100824.81
2023-03-16T05:16:24.950Z,100822.16
2023-03-16T05:17:57.067Z,100817.75
2023-03-16T05:19:28.789Z,100826.59
2023-03-16T05:21:00.656Z,100824.00
2023-03-16T05:22:44.845Z,100818.72
2023-03-16T05:24:30.365Z,100824.00
2023-03-16T05:26:02.641Z,100825.75
2023-03-16T05:27:36.709Z,100824.03
2023-03-16T05:29:11.747Z,100830.16
2023-03-16T05:30:45.363Z,100824.91
2023-03-16T05:32:21.441Z,100833.69
2023-03-16T05:33:54.234Z,100829.31
2023-03-16T05:35:28.184Z,100831.94
2023-03-16T05:37:04.412Z,100834.63
2023-03-16T05:38:39.485Z,100835.50
2023-03-16T05:40:18.677Z,100834.63
2023-03-16T05:41:58.340Z,100839.03
2023-03-16T05:43:51.808Z,100837.25
2023-03-16T05:45:25.034Z,100834.66
2023-03-16T05:47:08.114Z,100836.44
2023-03-16T05:48:44.018Z,100840.00
2023-03-16T05:50:20.414Z,100845.25
2023-03-16T05:51:52.458Z,100841.75
2023-03-16T05:53:28.878Z,100844.44
2023-03-16T05:55:07.069Z,100833.91
2023-03-16T05:56:38.960Z,100846.25
2023-03-16T05:58:11.974Z,100847.13
2023-03-16T05:59:45.986Z,100853.31
2023-03-16T06:01:18.238Z,100851.56
2023-03-16T06:02:52.732Z,100851.53
2023-03-16T06:04:24.977Z,100842.75
2023-03-16T06:05:56.953Z,100850.66
2023-03-16T06:07:35.637Z,100854.19
2023-03-16T06:09:07.723Z,100855.06
2023-03-16T06:10:39.501Z,100862.13
2023-03-16T06:12:11.515Z,100861.22
2023-03-16T06:13:44.333Z,100861.22
2023-03-16T06:15:16.876Z,100856.81
2023-03-16T06:16:48.652Z,100860.31
2023-03-16T06:18:21.484Z,100856.75
2023-03-16T06:19:53.429Z,100857.63
2023-03-16T06:21:25.203Z,100852.34
2023-03-16T06:22:59.203Z,100855.84
2023-03-16T06:24:31.766Z,100860.22
2023-03-16T06:26:03.717Z,100865.44
2023-03-16T06:27:37.729Z,100861.91
2023-03-16T06:29:14.813Z,100853.06
2023-03-16T06:30:47.298Z,100863.56
2023-03-16T06:32:19.180Z,100859.13
2023-03-16T06:33:51.670Z,100856.44
2023-03-16T06:35:23.964Z,100855.50
2023-03-16T06:37:15.954Z,100858.94
2023-03-16T06:38:47.897Z,100857.97
2023-03-16T06:40:38.678Z,100866.69
2023-03-16T06:42:11.499Z,100865.75
2023-03-16T06:43:43.997Z,100862.13
2023-03-16T06:45:17.906Z,100862.06
2023-03-16T06:46:49.756Z,100867.25
2023-03-16T06:48:21.473Z,100871.56
2023-03-16T06:49:55.367Z,100870.59
2023-03-16T06:51:29.575Z,100869.59
2023-03-16T06:53:01.528Z,100867.75
2023-03-16T06:54:37.613Z,100872.00
2023-03-16T06:56:09.652Z,100868.41
2023-03-16T06:57:45.421Z,100865.66
2023-03-16T06:59:17.200Z,100869.03
2023-03-16T07:00:49.070Z,100869.78
2023-03-16T07:02:23.648Z,100869.63
2023-03-16T07:03:56.489Z,100877.38
2023-03-16T07:05:33.136Z,100872.84
2023-03-16T07:07:05.587Z,100870.03
2023-03-16T07:08:37.350Z,100874.28
2023-03-16T07:10:12.369Z,100870.59
2023-03-16T07:11:44.887Z,100868.63
2023-03-16T07:13:16.607Z,100864.91
2023-03-16T07:14:51.857Z,100869.97
2023-03-16T07:16:27.722Z,100866.19
2023-03-16T07:18:03.165Z,100874.78
2023-03-16T07:19:35.392Z,100860.50
2023-03-16T07:21:08.121Z,100868.16
2023-03-16T07:22:41.901Z,100874.09
2023-03-16T07:24:16.098Z,100872.09
2023-03-16T07:25:47.808Z,100874.53
2023-03-16T07:27:23.618Z,100873.44
2023-03-16T07:28:58.202Z,100879.38
2023-03-16T07:30:31.198Z,100872.94
2023-03-16T07:32:04.143Z,100872.69
2023-03-16T07:33:42.092Z,100876.84
2023-03-16T07:35:18.014Z,100878.38
2023-03-16T07:36:52.848Z,100871.09
2023-03-16T07:38:25.625Z,100873.47
2023-03-16T07:39:57.503Z,100873.22
2023-03-16T07:41:31.611Z,100867.75
2023-03-16T07:43:18.594Z,100869.22
2023-03-16T07:44:56.107Z,100859.28
2023-03-16T07:46:28.234Z,100862.53
2023-03-16T07:48:00.227Z,100864.13
2023-03-16T07:49:58.188Z,100865.59
2023-03-16T07:51:30.063Z,100868.06
2023-03-16T07:53:02.147Z,100871.50
2023-03-16T07:54:34.290Z,100865.97
2023-03-16T07:56:07.691Z,100872.75
2023-03-16T07:57:42.471Z,100869.88
2023-03-16T07:59:14.241Z,100871.41
2023-03-16T08:00:46.747Z,100868.50
2023-03-16T08:02:21.722Z,100877.19
2023-03-16T08:03:54.262Z,100872.53
2023-03-16T08:05:27.780Z,100882.09
2023-03-16T08:07:04.182Z,100883.56
2023-03-16T08:08:49.808Z,100878.00
2023-03-16T08:10:29.587Z,100883.03
2023-03-16T08:12:22.554Z,100877.53
2023-03-16T08:13:56.537Z,100872.00
2023-03-16T08:15:34.073Z,100877.97
2023-03-16T08:17:13.074Z,100882.22
2023-03-16T08:18:44.969Z,100882.00
2023-03-16T08:20:16.932Z,100880.00
2023-03-16T08:22:01.139Z,100880.63
2023-03-16T08:23:37.678Z,100889.25
2023-03-16T08:25:10.916Z,100889.94
2023-03-16T08:26:45.092Z,100889.69
2023-03-16T08:28:17.155Z,100891.19
2023-03-16T08:29:52.990Z,100891.00
2023-03-16T08:31:25.984Z,100888.00
2023-03-16T08:33:07.734Z,100880.75
2023-03-16T08:34:40.697Z,100879.53
2023-03-16T08:36:15.948Z,100877.50
2023-03-16T08:37:51.843Z,100885.19
2023-03-16T08:39:23.621Z,100884.88
2023-03-16T08:40:55.728Z,100887.31
2023-03-16T08:42:29.022Z,100886.00
2023-03-16T08:44:04.972Z,100887.53
2023-03-16T08:45:37.501Z,100883.59
2023-03-16T08:47:10.673Z,100885.19
2023-03-16T08:48:43.210Z,100884.09
2023-03-16T08:50:15.703Z,100892.59
2023-03-16T08:51:47.598Z,100881.69
2023-03-16T08:53:19.727Z,100890.28
2023-03-16T08:55:02.399Z,100889.94
2023-03-16T08:56:34.982Z,100889.56
2023-03-16T08:58:06.974Z,100881.31
2023-03-16T08:59:38.727Z,100886.44
2023-03-16T09:01:10.485Z,100889.78
2023-03-16T09:02:42.980Z,100892.09
2023-03-16T09:04:15.097Z,100886.50
2023-03-16T09:05:47.733Z,100880.09
2023-03-16T09:07:20.599Z,100885.13
2023-03-16T09:08:53.067Z,100888.28
2023-03-16T09:10:25.612Z,100887.09
2023-03-16T09:11:57.728Z,100889.34
2023-03-16T09:13:30.663Z,100887.13
2023-03-16T09:15:02.494Z,100890.38
2023-03-16T09:16:35.168Z,100888.38
2023-03-16T09:18:06.944Z,100887.16
2023-03-16T09:19:58.815Z,100891.13
2023-03-16T09:21:31.455Z,100889.84
2023-03-16T09:23:03.800Z,100891.28
2023-03-16T09:24:35.547Z,100888.22
2023-03-16T09:26:07.728Z,100892.34
2023-03-16T09:27:39.453Z,100890.19
2023-03-16T09:29:11.176Z,100879.13
2023-03-16T09:30:43.385Z,100881.34
2023-03-16T09:32:15.602Z,100888.91
2023-03-16T09:33:48.128Z,100884.03
2023-03-16T09:35:20.377Z,100883.66
2023-03-16T09:36:53.646Z,100885.78
2023-03-16T09:38:28.830Z,100892.13
2023-03-16T09:40:10.231Z,100887.66
2023-03-16T09:41:54.060Z,100879.78
2023-03-16T09:43:49.424Z,100885.88
2023-03-16T09:45:38.642Z,100883.53
2023-03-16T09:47:12.174Z,100878.53
2023-03-16T09:48:44.172Z,100869.22
2023-03-16T09:50:22.639Z,100865.44
2023-03-16T09:52:11.226Z,100864.03
2023-03-16T09:53:43.069Z,100861.50
2023-03-16T09:55:15.426Z,100866.38
2023-03-16T09:56:50.404Z,100866.75
2023-03-16T09:58:22.605Z,100862.50
2023-03-16T09:59:59.134Z,100859.31
2023-03-16T10:01:35.325Z,100864.97
2023-03-16T10:03:28.649Z,100857.97
2023-03-16T10:05:09.893Z,100863.44
2023-03-16T10:06:54.669Z,100867.28
2023-03-16T10:08:33.571Z,100864.88
2023-03-16T10:10:20.742Z,100862.66
2023-03-16T10:11:58.000Z,100865.56
2023-03-16T10:13:42.500Z,100858.75
2023-03-16T10:15:18.955Z,100860.00
2023-03-16T10:16:58.733Z,100856.97
2023-03-16T10:18:39.215Z,100853.78
2023-03-16T10:20:20.850Z,100854.06
2023-03-16T10:21:56.414Z,100850.84
2023-03-16T10:23:28.454Z,100854.94
2023-03-16T10:25:12.927Z,100857.22
2023-03-16T10:27:00.334Z,100860.59
2023-03-16T10:28:32.281Z,100860.38
2023-03-16T10:30:22.818Z,100855.88
2023-03-16T10:32:01.974Z,100860.78
2023-03-16T10:33:36.747Z,100853.31
2023-03-16T10:35:30.271Z,100850.75
2023-03-16T10:37:05.220Z,100842.13
2023-03-16T10:38:46.912Z,100847.28
2023-03-16T10:40:20.489Z,100842.81
2023-03-16T10:41:57.356Z,100850.31
2023-03-16T10:43:29.801Z,100845.66
2023-03-16T10:45:03.232Z,100839.47
2023-03-16T10:46:50.813Z,100841.16
2023-03-16T10:48:28.485Z,100844.53
2023-03-16T10:50:12.600Z,100841.19
2023-03-16T10:51:44.380Z,100850.97
2023-03-16T10:53:27.284Z,100844.78
2023-03-16T10:55:02.540Z,100846.69
2023-03-16T10:56:38.493Z,100847.88
2023-03-16T10:58:10.307Z,100845.66
2023-03-16T10:59:49.884Z,100844.00
2023-03-16T11:01:29.043Z,100841.91
2023-03-16T11:03:02.668Z,100841.03
2023-03-16T11:04:34.754Z,100834.56
2023-03-16T11:06:16.688Z,100826.69
2023-03-16T11:07:51.152Z,100830.66
2023-03-16T11:09:26.287Z,100830.19
2023-03-16T11:11:08.693Z,100814.66
2023-03-16T11:12:40.464Z,100819.34
2023-03-16T11:14:15.652Z,100814.44
2023-03-16T11:15:54.210Z,100820.53
2023-03-16T11:17:36.946Z,100809.97
2023-03-16T11:19:11.324Z,100810.34
2023-03-16T11:20:43.996Z,100811.59
2023-03-16T11:22:22.646Z,100812.00
2023-03-16T11:23:56.987Z,100806.97
2023-03-16T11:25:38.703Z,100807.22
2023-03-16T11:27:21.645Z,100800.44
2023-03-16T11:29:03.704Z,100800.09
2023-03-16T11:30:54.362Z,100797.66
2023-03-16T11:32:31.163Z,100792.25
2023-03-16T11:34:02.978Z,100795.22
2023-03-16T11:35:58.380Z,100790.31
2023-03-16T11:37:30.336Z,100791.06
2023-03-16T11:39:33.782Z,100784.72
2023-03-16T11:41:10.775Z,100789.72
2023-03-16T11:42:56.757Z,100794.75
2023-03-16T11:44:52.289Z,100792.41
2023-03-16T11:46:30.346Z,100793.84
2023-03-16T11:48:11.060Z,100792.72
2023-03-16T11:49:55.942Z,100784.00
2023-03-16T11:51:47.538Z,100779.72
2023-03-16T11:53:26.263Z,100776.78
2023-03-16T11:55:10.505Z,100787.75
2023-03-16T11:56:48.464Z,100778.63
2023-03-16T11:58:35.236Z,100781.75
2023-03-16T12:00:21.755Z,100772.63
2023-03-16T12:02:22.170Z,100775.47
2023-03-16T12:04:30.781Z,100769.91
2023-03-16T12:06:30.841Z,100772.81
2023-03-16T12:08:24.738Z,100772.53
2023-03-16T12:10:18.939Z,100771.94
2023-03-16T12:12:00.114Z,100762.25
2023-03-16T12:13:56.416Z,100755.47
2023-03-16T12:15:39.613Z,100760.19
2023-03-16T12:17:20.718Z,100756.09
2023-03-16T12:19:00.200Z,100751.31
2023-03-16T12:20:39.869Z,100749.63
2023-03-16T12:22:22.867Z,100745.09
2023-03-16T12:23:59.306Z,100745.78
2023-03-16T12:25:34.896Z,100746.53
2023-03-16T12:27:13.222Z,100739.28
2023-03-16T12:28:45.728Z,100739.03
2023-03-16T12:30:27.467Z,100735.34
2023-03-16T12:32:11.886Z,100733.38
2023-03-16T12:34:05.352Z,100732.13
2023-03-16T12:35:52.761Z,100738.66
2023-03-16T12:37:42.627Z,100732.53
2023-03-16T12:39:25.051Z,100732.03
2023-03-16T12:41:07.129Z,100725.47
2023-03-16T12:42:55.386Z,100720.19
2023-03-16T12:44:46.155Z,100727.34
2023-03-16T12:46:38.728Z,100726.13
2023-03-16T12:48:25.031Z,100731.13
2023-03-16T12:50:06.239Z,100726.25
2023-03-16T12:51:43.540Z,100728.22
2023-03-16T12:53:45.871Z,100724.31
2023-03-16T12:55:44.216Z,100719.09
2023-03-16T12:57:19.804Z,100725.13
2023-03-16T12:58:56.546Z,100723.06
2023-03-16T13:00:40.769Z,100714.41
2023-03-16T13:02:18.079Z,100717.94
2023-03-16T13:03:50.967Z,100719.56
2023-03-16T13:05:32.370Z,100720.16
2023-03-16T13:07:18.279Z,100707.38
2023-03-16T13:08:57.827Z,100706.50
2023-03-16T13:10:29.883Z,100714.13
2023-03-16T13:12:05.210Z,100697.66
2023-03-16T13:14:13.424Z,100702.19
2023-03-16T13:15:49.777Z,100695.06
2023-03-16T13:17:33.052Z,100688.03
2023-03-16T13:19:19.812Z,100696.59
2023-03-16T13:21:00.980Z,100693.44
2023-03-16T13:23:11.951Z,100681.72
2023-03-16T13:24:51.881Z,100681.97
2023-03-16T13:26:38.666Z,100675.94
2023-03-16T13:28:16.219Z,100670.78
2023-03-16T13:29:59.202Z,100673.84
2023-03-16T13:31:41.804Z,100671.44
2023-03-16T13:33:23.206Z,100673.53
2023-03-16T13:34:57.562Z,100670.84
2023-03-16T13:36:31.140Z,100664.66
2023-03-16T13:38:05.844Z,100678.03
2023-03-16T13:39:37.612Z,100676.06
2023-03-16T13:41:14.104Z,100675.09
2023-03-16T13:42:49.904Z,100675.19
2023-03-16T13:44:23.974Z,100681.34
2023-03-16T13:45:56.859Z,100682.66
2023-03-16T13:47:29.700Z,100682.09
2023-03-16T13:49:01.720Z,100671.81
2023-03-16T13:50:35.972Z,100671.19
2023-03-16T13:52:14.729Z,100670.25
2023-03-16T13:53:48.321Z,100675.53
2023-03-16T13:55:27.492Z,100668.31
2023-03-16T13:57:03.802Z,100662.19
2023-03-16T13:58:38.077Z,100656.66
2023-03-16T14:00:24.890Z,100656.19
2023-03-16T14:01:59.830Z,100649.06
2023-03-16T14:03:37.311Z,100645.13
2023-03-16T14:05:18.930Z,100651.03
2023-03-16T14:06:57.330Z,100650.81
2023-03-16T14:08:30.606Z,100647.47
2023-03-16T14:10:05.372Z,100637.28
2023-03-16T14:11:37.218Z,100636.78
2023-03-16T14:13:22.565Z,100642.94
2023-03-16T14:14:56.032Z,100645.41
2023-03-16T14:16:32.198Z,100642.06
2023-03-16T14:18:22.890Z,100632.88
2023-03-16T14:20:00.584Z,100635.81
2023-03-16T14:21:37.233Z,100633.13
2023-03-16T14:23:22.387Z,100629.19
2023-03-16T14:25:00.876Z,100638.66
2023-03-16T14:26:44.768Z,100632.00
2023-03-16T14:28:19.160Z,100637.00
2023-03-16T14:29:59.201Z,100640.31
2023-03-16T14:31:38.318Z,100631.44
2023-03-16T14:33:28.520Z,100634.63
2023-03-16T14:35:10.775Z,100636.28
2023-03-16T14:36:42.474Z,100636.78
2023-03-16T14:38:21.807Z,100639.97
2023-03-16T14:40:06.144Z,100628.50
2023-03-16T14:41:38.594Z,100634.72
2023-03-16T14:43:11.544Z,100633.56
2023-03-16T14:44:44.438Z,100630.16
2023-03-16T14:46:24.372Z,100623.22
2023-03-16T14:48:03.451Z,100629.97
2023-03-16T14:49:40.930Z,100626.63
2023-03-16T14:51:14.886Z,100631.78
2023-03-16T14:52:48.009Z,100632.78
2023-03-16T14:54:24.479Z,100632.50
2023-03-16T14:55:56.905Z,100631.25
2023-03-16T14:57:28.692Z,100620.69
2023-03-16T14:59:00.870Z,100629.31
2023-03-16T15:00:37.146Z,100620.25
2023-03-16T15:02:23.233Z,100618.81
2023-03-16T15:03:55.168Z,100624.50
2023-03-16T15:05:35.204Z,100626.28
2023-03-16T15:07:29.802Z,100622.16
2023-03-16T15:09:02.052Z,100613.56
2023-03-16T15:10:35.877Z,100609.91
2023-03-16T15:12:16.069Z,100596.72
2023-03-16T15:13:48.524Z,100606.56
2023-03-16T15:15:23.958Z,100600.72
2023-03-16T15:16:55.669Z,100599.97
2023-03-16T15:18:27.521Z,100604.41
2023-03-16T15:19:59.314Z,100595.59
2023-03-16T15:21:31.602Z,100598.28
2023-03-16T15:23:05.108Z,100610.66
2023-03-16T15:24:37.361Z,100603.06
2023-03-16T15:26:12.149Z,100594.34
2023-03-16T15:27:44.591Z,100597.75
2023-03-16T15:29:19.824Z,100592.97
2023-03-16T15:30:57.493Z,100596.59
2023-03-16T15:32:29.350Z,100600.00
2023-03-16T15:34:01.095Z,100596.53
2023-03-16T15:35:33.217Z,100598.72
2023-03-16T15:37:05.093Z,100609.22
2023-03-16T15:38:40.389Z,100599.66
2023-03-16T15:40:21.422Z,100605.03
2023-03-16T15:41:53.186Z,100598.56
2023-03-16T15:43:29.003Z,100598.81
2023-03-16T15:45:00.813Z,100596.34
2023-03-16T15:46:32.586Z,100589.25
2023-03-16T15:48:05.552Z,100581.63
2023-03-16T15:49:47.198Z,100577.63
2023-03-16T15:51:27.454Z,100585.56
2023-03-16T15:53:04.845Z,100571.63
2023-03-16T15:54:37.852Z,100560.47
2023-03-16T15:56:13.732Z,100558.63
2023-03-16T15:57:46.689Z,100569.19
2023-03-16T15:59:22.322Z,100574.47
2023-03-16T16:00:57.512Z,100577.72
2023-03-16T16:02:31.336Z,100578.72
2023-03-16T16:04:03.613Z,100582.00
2023-03-16T16:05:36.367Z,100587.66
2023-03-16T16:07:10.961Z,100594.66
2023-03-16T16:08:43.700Z,100591.09
2023-03-16T16:10:16.883Z,100593.91
2023-03-16T16:11:50.593Z,100583.88
2023-03-16T16:13:43.010Z,100591.19
2023-03-16T16:15:23.313Z,100591.69
2023-03-16T16:16:55.491Z,100593.56
2023-03-16T16:18:30.328Z,100596.63
2023-03-16T16:20:02.823Z,100593.00
2023-03-16T16:21:35.322Z,100595.34
2023-03-16T16:23:08.197Z,100601.88
2023-03-16T16:24:39.955Z,100591.09
2023-03-16T16:26:41.639Z,100606.00
2023-03-16T16:28:24.924Z,100607.28
2023-03-16T16:29:56.879Z,100608.50
2023-03-16T16:31:30.670Z,100615.25
2023-03-16T16:33:03.248Z,100621.69
2023-03-16T16:34:35.329Z,100613.78
2023-03-16T16:36:17.716Z,100608.03
2023-03-16T16:37:50.176Z,100606.22
2023-03-16T16:39:22.325Z,100608.13
2023-03-16T16:40:57.185Z,100604.72
2023-03-16T16:42:29.225Z,100620.09
2023-03-16T16:44:05.400Z,100609.38
2023-03-16T16:45:37.469Z,100612.06
2023-03-16T16:47:19.517Z,100613.03
2023-03-16T16:48:54.386Z,100611.09
2023-03-16T16:50:27.690Z,100601.06
2023-03-16T16:51:59.730Z,100594.69
2023-03-16T16:53:31.722Z,100600.22
2023-03-16T16:55:03.561Z,100599.16
2023-03-16T16:56:37.704Z,100599.78
2023-03-16T16:58:18.504Z,100602.16
2023-03-16T16:59:55.792Z,100593.03
2023-03-16T17:01:35.267Z,100591.78
2023-03-16T17:03:27.164Z,100592.47
2023-03-16T17:04:58.911Z,100585.75
2023-03-16T17:06:31.227Z,100586.53
2023-03-16T17:08:04.379Z,100593.97
2023-03-16T17:09:36.807Z,100598.81
2023-03-16T17:11:21.763Z,100596.31
2023-03-16T17:12:57.043Z,100604.50
2023-03-16T17:14:29.027Z,100597.50
2023-03-16T17:16:01.218Z,100593.34
2023-03-16T17:17:33.075Z,100601.81
2023-03-16T17:19:13.678Z,100598.59
2023-03-16T17:20:45.994Z,100594.47
2023-03-16T17:22:24.776Z,100601.06
2023-03-16T17:23:57.472Z,100604.91
2023-03-16T17:25:30.597Z,100611.38
2023-03-16T17:27:04.604Z,100609.03
2023-03-16T17:28:41.705Z,100605.94
2023-03-16T17:30:23.469Z,100608.78
2023-03-16T17:31:55.234Z,100618.66
2023-03-16T17:33:28.435Z,100618.03
2023-03-16T17:35:00.153Z,100618.38
2023-03-16T17:36:32.064Z,100615.72
2023-03-16T17:38:03.932Z,100607.84
2023-03-16T17:39:35.719Z,100622.38
2023-03-16T17:41:17.534Z,100608.72
2023-03-16T17:42:50.119Z,100616.66
2023-03-16T17:44:22.004Z,100607.78
2023-03-16T17:45:55.044Z,100614.06
2023-03-16T17:47:29.959Z,100603.31
2023-03-16T17:49:02.466Z,100601.81
2023-03-16T17:50:35.152Z,100605.44
2023-03-16T17:52:21.713Z,100602.94
2023-03-16T17:53:54.747Z,100606.47
2023-03-16T17:55:27.269Z,100600.25
2023-03-16T17:56:58.992Z,100594.91
2023-03-16T17:58:31.527Z,100604.75
2023-03-16T18:00:09.024Z,100603.00
2023-03-16T18:01:42.204Z,100604.78
2023-03-16T18:03:17.396Z,100605.66
2023-03-16T18:04:49.139Z,100596.78
2023-03-16T18:06:25.886Z,100598.75
2023-03-16T18:08:16.202Z,100592.81
2023-03-16T18:09:48.484Z,100583.84
2023-03-16T18:11:24.303Z,100583.91
2023-03-16T18:13:00.823Z,100575.03
2023-03-16T18:14:38.571Z,100582.28
2023-03-16T18:16:15.916Z,100585.88
2023-03-16T18:17:49.705Z,100587.53
2023-03-16T18:19:25.440Z,100585.03
2023-03-16T18:21:00.456Z,100600.88